Time;durP1;ratioP1;P1;durP2;ratioP2;P2;SDS_P1;SDS_P2;PMS_P1;PMS_P2;Temp;Humidity;BMP_temperature;BMP_pressure;BME280_temperature;BME280_humidity;BME280_pressure;Samples;Min_cycle;Max_cycle;Signal;HPM_P1;HPM_P2
2022/04/18 00:02:00;;;;;;;4.22;3.72;;;;;;;8.73;53.39;99630.00;5005403;28;20201;-82
2022/04/18 00:04:27;;;;;;;4.40;4.00;;;;;;;8.63;53.75;99618.84;5005715;28;20196;-81
2022/04/18 00:06:54;;;;;;;5.25;4.53;;;;;;;8.62;53.81;99633.22;5003693;28;20194;-81
2022/04/18 00:09:21;;;;;;;4.68;4.10;;;;;;;8.55;53.76;99629.97;5001089;28;20635;-82
2022/04/18 00:11:48;;;;;;;4.68;4.00;;;;;;;8.59;53.94;99624.44;5004634;28;20678;-81
2022/04/18 00:14:14;;;;;;;4.90;3.60;;;;;;;8.55;53.95;99619.22;4992322;28;20609;-81
2022/04/18 00:16:41;;;;;;;4.30;3.78;;;;;;;8.40;54.61;99625.34;4995752;28;20190;-81
2022/04/18 00:19:07;;;;;;;7.00;4.65;;;;;;;8.43;54.00;99618.94;5005674;28;20213;-80
2022/04/18 00:21:34;;;;;;;4.45;3.90;;;;;;;8.39;54.19;99615.53;4993182;28;20195;-80
2022/04/18 00:24:02;;;;;;;5.32;4.75;;;;;;;8.32;55.07;99612.28;5008088;28;20193;-81
2022/04/18 00:26:28;;;;;;;4.13;3.72;;;;;;;8.30;55.10;99611.47;5003084;28;20385;-81
2022/04/18 00:28:55;;;;;;;5.90;4.00;;;;;;;8.36;55.45;99611.16;5010936;28;20531;-80
2022/04/18 00:31:22;;;;;;;4.25;3.47;;;;;;;8.34;55.58;99604.13;5002161;28;20198;-81
2022/04/18 00:33:48;;;;;;;4.35;3.90;;;;;;;8.25;56.08;99604.59;5011105;28;20216;-81
2022/04/18 00:36:15;;;;;;;4.20;3.80;;;;;;;8.35;55.87;99612.13;5014927;28;20199;-81
2022/04/18 00:38:44;;;;;;;5.65;4.38;;;;;;;8.12;56.62;99599.81;5002007;28;20199;-81
2022/04/18 00:41:12;;;;;;;4.03;3.72;;;;;;;8.15;56.73;99598.81;5014803;28;20258;-81
2022/04/18 00:43:40;;;;;;;5.22;3.90;;;;;;;8.05;57.06;99598.38;5013324;28;20646;-81
2022/04/18 00:46:07;;;;;;;4.28;3.88;;;;;;;7.99;57.71;99601.34;5009017;28;20282;-80
2022/04/18 00:48:34;;;;;;;4.80;4.40;;;;;;;8.00;57.74;99603.06;5001670;28;20191;-81
2022/04/18 00:51:01;;;;;;;4.47;3.75;;;;;;;8.06;57.47;99599.25;4995054;28;20666;-81
2022/04/18 00:53:28;;;;;;;5.03;3.50;;;;;;;7.96;57.63;99598.81;5007353;28;20221;-81
2022/04/18 00:55:54;;;;;;;4.70;3.45;;;;;;;7.86;58.38;99602.88;5014240;28;20223;-80
2022/04/18 00:58:23;;;;;;;4.22;3.83;;;;;;;7.83;58.87;99597.66;5003091;28;20656;-81
2022/04/18 01:00:50;;;;;;;6.85;4.55;;;;;;;7.88;58.53;99596.50;5012056;28;20199;-81
2022/04/18 01:03:17;;;;;;;4.75;4.28;;;;;;;7.81;58.44;99595.03;5008169;28;20189;-81
2022/04/18 01:05:44;;;;;;;4.35;3.50;;;;;;;7.80;57.85;99587.97;4994336;28;20188;-80
2022/04/18 01:08:10;;;;;;;4.53;3.65;;;;;;;7.78;58.30;99588.94;5003770;28;20195;-80
2022/04/18 01:10:38;;;;;;;5.15;3.85;;;;;;;7.65;58.57;99588.66;4998225;28;20565;-80
2022/04/18 01:13:05;;;;;;;3.55;3.25;;;;;;;7.57;59.29;99594.34;4997715;28;20225;-80
2022/04/18 01:15:33;;;;;;;4.45;3.55;;;;;;;7.52;60.04;99596.38;4998462;28;20193;-81
2022/04/18 01:17:59;;;;;;;4.97;3.78;;;;;;;7.57;60.00;99590.81;5001411;28;20195;-81
2022/04/18 01:20:34;;;;;;;5.00;3.58;;;;;;;7.53;60.68;99590.09;4995775;28;20195;-81
2022/04/18 01:23:02;;;;;;;5.25;3.92;;;;;;;7.41;61.52;99594.19;5005215;28;20194;-81
2022/04/18 01:30:57;;;;;;;5.35;4.80;;;;;;;7.47;61.50;99588.56;4997665;28;20202;-81
2022/04/18 01:33:24;;;;;;;4.82;4.00;;;;;;;7.24;63.05;99586.06;4998947;28;20208;-80
2022/04/18 01:35:51;;;;;;;4.93;4.10;;;;;;;7.22;63.45;99585.25;4993793;28;20199;-80
2022/04/18 01:38:18;;;;;;;4.30;3.90;;;;;;;7.15;64.45;99584.66;5003748;28;20198;-81
2022/04/18 01:40:45;;;;;;;4.55;3.70;;;;;;;7.15;64.78;99587.34;5013795;28;20198;-80
2022/04/18 01:43:12;;;;;;;4.28;3.88;;;;;;;7.06;65.17;99580.56;5001175;28;20191;-81
2022/04/18 01:45:38;;;;;;;6.47;4.28;;;;;;;7.09;65.50;99590.28;4997769;28;20210;-80
2022/04/18 01:48:06;;;;;;;8.10;3.90;;;;;;;7.16;65.70;99581.03;5009157;28;20634;-80
2022/04/18 01:50:32;;;;;;;5.95;4.07;;;;;;;7.17;64.95;99579.22;5009204;28;20213;-81
2022/04/18 01:52:59;;;;;;;4.20;3.80;;;;;;;7.09;65.96;99575.06;5009024;28;20213;-80
2022/04/18 01:55:27;;;;;;;4.00;3.60;;;;;;;7.15;65.46;99584.66;5013020;28;20234;-81
2022/04/18 01:57:54;;;;;;;5.15;4.22;;;;;;;7.27;65.07;99573.38;5004278;28;20197;-80
2022/04/18 02:00:20;;;;;;;6.55;4.07;;;;;;;7.30;64.15;99575.94;4995080;28;20238;-81
2022/04/18 02:02:47;;;;;;;4.53;3.75;;;;;;;7.37;62.64;99567.59;5002560;28;20578;-80
2022/04/18 02:05:13;;;;;;;5.07;4.57;;;;;;;7.53;62.70;99563.31;5009314;28;20534;-81
2022/04/18 02:07:40;;;;;;;4.20;3.70;;;;;;;7.56;61.04;99562.28;5000813;28;20191;-81
2022/04/18 02:10:08;;;;;;;6.10;4.15;;;;;;;7.69;59.15;99558.09;5011143;28;20191;-81
2022/04/18 02:12:36;;;;;;;4.35;3.95;;;;;;;7.76;57.08;99558.69;4999086;28;20203;-80
2022/04/18 02:15:03;;;;;;;5.20;3.20;;;;;;;7.86;56.37;99558.16;4994210;28;20205;-81
2022/04/18 02:17:29;;;;;;;3.75;3.35;;;;;;;7.91;55.38;99550.78;5010845;28;20194;-81
2022/04/18 02:19:56;;;;;;;4.55;4.15;;;;;;;8.00;55.17;99551.28;5013238;28;20601;-80
2022/04/18 02:22:23;;;;;;;3.88;3.58;;;;;;;8.09;54.85;99549.00;5007828;28;20544;-80
2022/04/18 02:24:49;;;;;;;3.30;2.90;;;;;;;8.11;54.65;99539.06;5000876;28;20655;-80
2022/04/18 02:27:16;;;;;;;4.53;3.80;;;;;;;8.18;55.45;99528.91;5008958;28;20638;-80
2022/04/18 02:29:44;;;;;;;3.70;3.40;;;;;;;8.06;55.07;99533.06;4993314;28;20670;-80
2022/04/18 02:34:55;;;;;;;3.47;3.17;;;;;;;8.17;53.51;99516.47;4996616;28;20597;-80
2022/04/18 02:37:22;;;;;;;4.13;3.55;;;;;;;8.07;53.94;99521.41;4996831;28;20203;-80
2022/04/18 02:39:48;;;;;;;3.42;2.90;;;;;;;8.11;54.04;99525.66;5012437;28;20184;-80
2022/04/18 02:42:15;;;;;;;5.20;3.38;;;;;;;8.11;53.96;99522.97;5009058;28;20273;-80
2022/04/18 02:44:45;;;;;;;4.25;3.83;;;;;;;8.18;54.19;99520.88;4993041;28;20200;-81
2022/04/18 02:47:13;;;;;;;5.68;3.40;;;;;;;8.10;53.42;99512.34;4996532;28;20201;-80
2022/04/18 02:49:40;;;;;;;5.93;3.45;;;;;;;8.14;54.60;99505.91;4992336;28;20255;-80
2022/04/18 02:52:07;;;;;;;3.50;3.00;;;;;;;8.27;53.00;99500.75;4994414;28;20200;-80
2022/04/18 02:54:33;;;;;;;3.95;3.55;;;;;;;8.26;52.76;99496.34;5008282;28;20208;-80
2022/04/18 02:57:00;;;;;;;3.65;3.35;;;;;;;8.26;52.47;99496.34;5010674;28;20254;-81
2022/04/18 02:59:27;;;;;;;3.10;2.55;;;;;;;8.18;53.21;99501.22;4998577;28;20199;-81
2022/04/18 03:01:53;;;;;;;5.93;3.75;;;;;;;8.11;53.03;99498.84;5002791;28;20198;-80
2022/04/18 03:04:21;;;;;;;4.25;3.30;;;;;;;8.20;53.09;99502.88;4992825;28;20609;-80
2022/04/18 03:06:48;;;;;;;3.60;3.30;;;;;;;8.32;52.01;99498.72;4994462;28;20196;-80
2022/04/18 03:09:15;;;;;;;4.13;3.30;;;;;;;8.17;51.80;99494.13;5000813;28;20202;-80
2022/04/18 03:11:41;;;;;;;4.68;3.08;;;;;;;8.19;51.90;99502.97;5010371;28;20930;-80
2022/04/18 03:14:08;;;;;;;3.78;3.00;;;;;;;8.23;51.55;99497.38;5009705;28;20212;-80
2022/04/18 03:16:34;;;;;;;3.78;3.35;;;;;;;8.22;51.41;99495.63;5006148;28;20196;-80
2022/04/18 03:19:01;;;;;;;8.52;3.38;;;;;;;8.25;51.60;99491.94;4998379;28;20539;-81
2022/04/18 03:21:29;;;;;;;3.78;3.30;;;;;;;8.10;51.89;99491.75;4992645;28;20349;-80
2022/04/18 03:23:56;;;;;;;3.13;2.92;;;;;;;8.02;52.42;99490.41;5008397;28;20205;-81
2022/04/18 03:26:22;;;;;;;3.97;3.50;;;;;;;8.06;52.34;99482.13;5010309;28;20198;-80
2022/04/18 03:28:49;;;;;;;4.10;3.70;;;;;;;8.02;52.60;99485.88;4996005;28;20195;-80
2022/04/18 03:31:15;;;;;;;3.60;3.17;;;;;;;8.16;52.43;99482.53;4995948;28;20196;-80
2022/04/18 03:33:42;;;;;;;4.50;2.90;;;;;;;8.16;52.02;99493.25;5005444;28;20570;-80
2022/04/18 03:41:38;;;;;;;4.93;3.13;;;;;;;7.96;52.07;99480.84;4992225;28;20192;-80
2022/04/18 03:44:05;;;;;;;3.63;3.03;;;;;;;8.07;51.83;99483.88;4996773;28;20196;-80
2022/04/18 03:46:31;;;;;;;3.78;3.33;;;;;;;7.92;52.29;99485.50;5001967;28;20298;-80
2022/04/18 03:48:58;;;;;;;4.00;3.20;;;;;;;7.93;52.17;99486.34;5005104;28;20226;-80
2022/04/18 03:51:24;;;;;;;4.43;4.03;;;;;;;7.80;52.70;99478.06;5012014;28;20188;-80
2022/04/18 03:53:51;;;;;;;3.80;3.25;;;;;;;7.84;52.63;99486.78;5011864;28;20206;-80
2022/04/18 03:56:19;;;;;;;4.80;3.60;;;;;;;7.84;53.30;99503.75;5006652;28;20252;-80
2022/04/18 03:58:45;;;;;;;4.32;3.17;;;;;;;7.77;53.09;99491.59;4996468;28;20193;-80
2022/04/18 04:01:12;;;;;;;3.72;3.10;;;;;;;7.83;53.20;99498.47;5004403;28;20203;-80
2022/04/18 04:03:39;;;;;;;3.97;3.22;;;;;;;7.81;52.99;99501.22;5002279;28;20555;-80
2022/04/18 04:06:05;;;;;;;4.28;3.25;;;;;;;7.82;52.96;99489.53;4996070;28;20184;-80
2022/04/18 04:08:32;;;;;;;3.85;3.25;;;;;;;7.68;53.25;99492.03;5006430;28;20187;-80
2022/04/18 04:10:59;;;;;;;3.72;2.92;;;;;;;7.80;53.08;99485.19;4995767;28;20207;-80
2022/04/18 04:13:27;;;;;;;4.13;3.42;;;;;;;7.73;53.07;99481.94;5007613;28;20213;-80
2022/04/18 04:15:54;;;;;;;4.10;3.70;;;;;;;7.84;52.99;99481.44;4995448;28;20201;-82
2022/04/18 04:18:20;;;;;;;5.65;3.05;;;;;;;7.70;53.45;99484.78;4996717;28;20664;-80
2022/04/18 04:20:47;;;;;;;5.20;3.95;;;;;;;7.57;54.15;99489.00;5001213;28;20205;-81
2022/04/18 04:23:14;;;;;;;3.55;3.25;;;;;;;7.59;53.90;99490.66;5011320;28;20196;-81
2022/04/18 04:25:40;;;;;;;3.88;2.90;;;;;;;7.72;53.37;99494.50;5012110;28;20203;-80
2022/04/18 04:28:07;;;;;;;4.65;2.72;;;;;;;7.71;53.11;99499.91;5007497;28;20628;-80
2022/04/18 04:30:35;;;;;;;5.53;3.20;;;;;;;7.75;53.01;99504.19;5008880;28;20625;-81
2022/04/18 04:33:01;;;;;;;5.25;2.70;;;;;;;7.71;52.87;99499.91;5000303;28;20291;-80
2022/04/18 04:35:28;;;;;;;3.65;2.97;;;;;;;7.39;55.10;99491.59;4995433;28;20270;-80
2022/04/18 04:37:54;;;;;;;3.40;3.10;;;;;;;7.37;55.80;99497.97;4999893;28;20187;-80
2022/04/18 04:40:21;;;;;;;4.15;3.35;;;;;;;7.41;55.54;99499.56;5011408;28;20213;-80
2022/04/18 04:42:48;;;;;;;3.53;3.10;;;;;;;7.33;56.42;99494.56;4999807;28;20234;-80
2022/04/18 04:45:14;;;;;;;4.18;2.90;;;;;;;7.22;57.53;99503.09;5013045;28;20183;-80
2022/04/18 04:47:43;;;;;;;4.00;3.42;;;;;;;7.02;58.43;99505.81;4997056;28;20207;-81
2022/04/18 04:50:10;;;;;;;4.38;3.97;;;;;;;7.13;58.07;99508.88;5013194;28;20568;-80
2022/04/18 04:52:36;;;;;;;4.55;3.40;;;;;;;7.15;58.02;99500.78;4999273;28;20554;-80
2022/04/18 04:55:06;;;;;;;3.72;3.35;;;;;;;7.27;57.22;99493.03;4996036;28;20257;-79
2022/04/18 04:57:33;;;;;;;3.88;3.47;;;;;;;7.21;57.77;99495.13;5014736;28;20199;-81
2022/04/18 04:59:59;;;;;;;2.95;2.75;;;;;;;7.14;56.94;99488.31;5010985;28;20206;-80
2022/04/18 05:02:26;;;;;;;5.68;3.38;;;;;;;7.15;56.96;99487.41;4994714;28;20610;-80
2022/04/18 05:04:54;;;;;;;3.85;3.45;;;;;;;7.36;56.31;99496.25;5001822;28;20194;-80
2022/04/18 05:07:20;;;;;;;3.90;2.92;;;;;;;7.30;56.91;99495.59;5014143;28;20186;-80
2022/04/18 05:09:47;;;;;;;4.80;3.40;;;;;;;7.44;55.18;99489.59;5014239;28;20191;-80
2022/04/18 05:12:14;;;;;;;5.57;3.90;;;;;;;7.47;55.09;99493.94;5013497;28;20297;-80
2022/04/18 05:14:40;;;;;;;4.75;3.30;;;;;;;7.50;54.83;99497.31;5013670;28;20688;-80
2022/04/18 05:17:07;;;;;;;4.22;3.22;;;;;;;7.40;54.99;99493.34;5006144;28;20197;-80
2022/04/18 05:19:33;;;;;;;3.97;3.47;;;;;;;7.49;54.65;99490.22;4994280;28;20287;-80
2022/04/18 05:22:01;;;;;;;5.43;3.10;;;;;;;7.47;54.87;99494.78;4994584;28;20198;-80
2022/04/18 05:24:28;;;;;;;5.28;3.25;;;;;;;7.51;54.74;99492.84;4994115;28;20198;-80
2022/04/18 05:26:54;;;;;;;3.95;3.40;;;;;;;7.29;55.75;99493.84;4994077;28;20192;-80
2022/04/18 05:29:21;;;;;;;4.13;3.20;;;;;;;7.42;55.35;99501.31;4994098;28;20176;-81
2022/04/18 05:31:47;;;;;;;4.45;3.40;;;;;;;7.57;54.65;99500.56;4994205;28;20550;-80
2022/04/18 05:34:14;;;;;;;4.82;3.25;;;;;;;7.67;54.54;99501.88;4994257;28;20242;-81
2022/04/18 05:36:41;;;;;;;4.15;3.30;;;;;;;7.75;54.02;99500.66;4994278;28;20204;-81
2022/04/18 05:39:09;;;;;;;4.65;3.70;;;;;;;7.71;53.95;99508.84;4993971;28;20196;-81
2022/04/18 05:41:36;;;;;;;2.90;2.70;;;;;;;7.78;53.46;99503.16;4994087;28;20235;-81
2022/04/18 05:44:02;;;;;;;3.03;2.72;;;;;;;7.80;53.71;99498.59;4994283;28;20180;-80
2022/04/18 05:46:29;;;;;;;3.50;3.20;;;;;;;7.92;53.13;99501.56;4993679;28;20195;-80
2022/04/18 05:48:55;;;;;;;5.28;3.30;;;;;;;8.07;52.55;99502.66;4993651;28;20219;-81
2022/04/18 05:51:23;;;;;;;3.47;3.17;;;;;;;8.04;52.36;99504.59;4994071;28;20189;-80
2022/04/18 05:53:49;;;;;;;5.57;3.60;;;;;;;8.02;51.95;99507.34;5003402;28;20211;-81
2022/04/18 05:56:17;;;;;;;5.63;3.05;;;;;;;8.14;51.47;99506.75;5012930;28;20235;-80
2022/04/18 05:58:44;;;;;;;5.10;3.33;;;;;;;8.15;51.37;99504.94;5013444;28;20701;-80
2022/04/18 06:01:10;;;;;;;4.93;3.40;;;;;;;8.23;51.01;99505.44;5003910;28;20627;-80
2022/04/18 06:03:37;;;;;;;5.57;3.42;;;;;;;8.34;50.42;99511.13;4993549;28;20193;-81
2022/04/18 06:06:04;;;;;;;4.57;3.22;;;;;;;8.29;50.82;99513.16;4993291;28;20199;-81
2022/04/18 06:08:30;;;;;;;6.45;4.00;;;;;;;8.26;50.98;99510.63;4993464;28;20193;-81
2022/04/18 06:10:57;;;;;;;3.80;3.50;;;;;;;8.33;50.67;99512.06;4993329;28;20194;-81
2022/04/18 06:13:25;;;;;;;3.72;3.30;;;;;;;8.55;50.13;99505.66;4993503;28;20628;-81
2022/04/18 06:15:52;;;;;;;4.35;3.63;;;;;;;8.35;50.54;99517.34;4993566;28;20181;-81
2022/04/18 06:18:19;;;;;;;6.07;3.28;;;;;;;8.51;50.27;99521.03;4996522;28;20196;-80
2022/04/18 06:20:45;;;;;;;4.28;3.40;;;;;;;8.68;50.02;99519.28;5012783;28;20198;-80
2022/04/18 06:23:12;;;;;;;9.23;3.63;;;;;;;8.81;49.20;99514.16;5012783;28;20181;-82
2022/04/18 06:25:39;;;;;;;5.93;3.63;;;;;;;8.72;49.76;99519.03;5012001;28;20633;-81
2022/04/18 06:28:06;;;;;;;5.15;3.45;;;;;;;8.72;49.91;99515.50;5012503;28;20192;-81
2022/04/18 06:30:34;;;;;;;4.72;3.53;;;;;;;9.10;48.26;99512.63;5010508;28;20199;-86
2022/04/18 06:33:00;;;;;;;4.38;3.50;;;;;;;9.09;48.83;99518.94;5013245;28;20312;-86
2022/04/18 06:35:27;;;;;;;3.90;3.50;;;;;;;9.17;48.35;99520.25;4995447;28;20212;-82
2022/04/18 06:37:53;;;;;;;4.10;3.28;;;;;;;9.24;48.31;99514.56;4992951;28;20206;-81
2022/04/18 06:40:20;;;;;;;8.48;3.58;;;;;;;9.05;48.43;99515.56;5008974;28;20199;-84
2022/04/18 06:42:47;;;;;;;4.85;3.30;;;;;;;9.22;48.15;99508.41;5013062;28;20216;-84
2022/04/18 06:45:14;;;;;;;5.28;3.67;;;;;;;9.31;47.99;99515.97;5013600;28;20194;-85
2022/04/18 06:47:42;;;;;;;4.70;3.80;;;;;;;9.48;47.49;99512.38;5012747;28;20273;-85
2022/04/18 06:50:12;;;;;;;5.18;3.85;;;;;;;9.78;46.72;99505.28;4993390;28;20205;-85
2022/04/18 06:52:39;;;;;;;4.35;3.80;;;;;;;10.00;46.30;99506.75;4992827;28;20190;-85
2022/04/18 06:55:07;;;;;;;4.63;3.40;;;;;;;10.15;45.88;99503.19;4993064;28;20679;-81
2022/04/18 06:57:33;;;;;;;4.00;3.60;;;;;;;10.33;45.41;99500.38;4994173;28;20512;-83
2022/04/18 06:59:59;;;;;;;5.50;3.50;;;;;;;10.41;45.06;99503.50;5001912;28;20198;-81
2022/04/18 07:02:26;;;;;;;5.55;4.00;;;;;;;10.42;45.00;99502.53;4992722;28;20286;-81
2022/04/18 07:04:54;;;;;;;6.45;3.90;;;;;;;10.26;45.21;99501.69;4992870;28;20193;-81
2022/04/18 07:07:21;;;;;;;5.55;3.70;;;;;;;10.39;45.01;99500.91;4992724;28;20204;-82
2022/04/18 07:09:47;;;;;;;6.60;3.83;;;;;;;10.53;44.66;99497.38;4992329;28;20200;-81
2022/04/18 07:12:14;;;;;;;3.83;3.38;;;;;;;10.72;44.29;99497.16;4992637;28;20187;-80
2022/04/18 07:14:41;;;;;;;4.53;3.13;;;;;;;10.48;44.58;99496.81;4992451;28;20227;-81
2022/04/18 07:17:08;;;;;;;4.53;3.90;;;;;;;10.70;44.31;99496.41;4995857;28;20522;-81
2022/04/18 07:19:35;;;;;;;4.63;3.55;;;;;;;10.93;43.73;99503.06;5012052;28;20277;-81
2022/04/18 07:22:03;;;;;;;4.50;3.88;;;;;;;10.90;43.60;99497.88;5011990;28;20213;-82
2022/04/18 07:24:29;;;;;;;3.92;3.35;;;;;;;11.14;43.17;99500.00;5012079;28;20676;-81
2022/04/18 07:27:00;;;;;;;3.55;3.25;;;;;;;11.20;43.01;99496.94;5012016;28;20198;-80
2022/04/18 07:29:27;;;;;;;8.00;3.80;;;;;;;11.42;42.82;99494.63;5012137;28;20187;-80
2022/04/18 07:31:54;;;;;;;7.70;3.90;;;;;;;11.74;41.90;99502.50;5011848;28;20206;-81
2022/04/18 07:34:20;;;;;;;4.35;3.75;;;;;;;11.99;41.58;99492.84;5011553;28;20213;-80
2022/04/18 07:36:47;;;;;;;5.75;3.55;;;;;;;12.00;41.26;99497.25;5014119;28;20221;-80
2022/04/18 07:39:15;;;;;;;4.60;4.15;;;;;;;12.16;40.96;99497.97;5021786;28;20190;-80
2022/04/18 07:41:42;;;;;;;5.47;4.13;;;;;;;12.36;40.56;99488.56;5021801;28;20198;-80
2022/04/18 07:44:09;;;;;;;6.00;3.72;;;;;;;12.55;39.83;99501.69;5015500;28;20187;-80
2022/04/18 07:46:36;;;;;;;3.95;3.55;;;;;;;12.77;39.62;99490.25;5015644;28;20183;-80
2022/04/18 07:49:02;;;;;;;4.75;3.70;;;;;;;12.96;39.30;99492.56;5015636;28;20625;-80
2022/04/18 07:51:44;;;;;;;4.00;3.60;;;;;;;12.89;39.05;99492.13;5015719;28;20593;-81
2022/04/18 07:54:12;;;;;;;4.30;3.88;;;;;;;12.60;39.51;99485.19;5002684;28;20196;-81
2022/04/18 07:56:40;;;;;;;4.78;3.63;;;;;;;12.86;39.36;99496.88;4995508;28;20271;-81
2022/04/18 07:59:07;;;;;;;5.00;3.50;;;;;;;13.14;38.67;99491.28;4995692;28;20274;-81
2022/04/18 08:01:34;;;;;;;5.57;3.80;;;;;;;13.33;38.21;99490.00;4995571;28;20215;-80
2022/04/18 08:04:01;;;;;;;6.15;4.72;;;;;;;13.49;37.78;99493.34;4995898;28;20195;-80
2022/04/18 08:06:28;;;;;;;4.15;3.72;;;;;;;13.80;37.14;99491.13;4995724;28;20616;-81
2022/04/18 08:08:55;;;;;;;4.35;3.60;;;;;;;13.79;37.46;99480.41;4995626;28;20667;-81
2022/04/18 08:11:22;;;;;;;3.92;3.53;;;;;;;14.08;36.33;99478.25;4995956;28;20193;-80
2022/04/18 08:13:50;;;;;;;4.03;3.20;;;;;;;14.35;35.75;99483.44;4995760;28;20205;-80
2022/04/18 08:16:18;;;;;;;5.80;3.13;;;;;;;14.42;35.70;99475.72;5008487;28;20223;-81
2022/04/18 08:18:45;;;;;;;3.72;3.00;;;;;;;14.25;35.67;99483.28;5015165;28;20208;-80
2022/04/18 08:21:12;;;;;;;3.53;3.15;;;;;;;14.44;35.60;99487.28;5015168;28;20692;-81
2022/04/18 08:23:39;;;;;;;4.00;3.60;;;;;;;14.57;35.08;99486.28;5015080;28;20283;-80
2022/04/18 08:26:06;;;;;;;4.72;3.60;;;;;;;14.54;35.48;99488.31;5015078;28;20220;-80
2022/04/18 08:28:33;;;;;;;4.78;3.38;;;;;;;14.28;35.85;99485.75;5014956;28;20239;-81
2022/04/18 08:31:01;;;;;;;3.13;2.72;;;;;;;14.49;35.81;99485.09;5014949;28;20193;-80
2022/04/18 08:33:29;;;;;;;4.00;3.50;;;;;;;14.65;35.59;99474.84;5014342;28;20237;-81
2022/04/18 08:35:56;;;;;;;4.88;3.70;;;;;;;14.87;34.83;99484.03;5014451;28;20213;-80
2022/04/18 08:38:23;;;;;;;5.15;3.90;;;;;;;14.80;35.05;99484.50;5014378;28;20204;-80
2022/04/18 08:40:51;;;;;;;4.63;3.50;;;;;;;14.93;35.16;99483.56;5014372;28;20199;-81
2022/04/18 08:43:18;;;;;;;7.00;4.00;;;;;;;14.89;34.71;99480.22;5014792;28;20720;-80
2022/04/18 08:45:45;;;;;;;3.83;3.10;;;;;;;14.95;34.89;99468.91;5014016;28;20209;-80
2022/04/18 08:53:41;;;;;;;5.70;3.22;;;;;;;15.36;34.29;99475.59;5005655;28;20258;-80
2022/04/18 08:56:08;;;;;;;3.80;3.40;;;;;;;15.41;33.72;99465.22;4999929;28;20244;-80
2022/04/18 08:58:36;;;;;;;5.05;2.85;;;;;;;15.36;33.86;99472.03;5014381;28;20190;-80
2022/04/18 09:01:04;;;;;;;5.78;3.63;;;;;;;15.31;34.25;99463.38;5013763;28;20186;-80
2022/04/18 09:03:32;;;;;;;4.95;3.35;;;;;;;15.41;34.06;99467.09;5013731;28;20257;-80
2022/04/18 09:06:06;;;;;;;4.78;4.20;;;;;;;15.59;33.78;99470.16;5014236;28;20268;-80
2022/04/18 09:08:43;;;;;;;3.80;2.95;;;;;;;15.79;33.25;99472.16;5014317;28;20238;-80
2022/04/18 09:11:10;;;;;;;3.80;2.80;;;;;;;15.77;32.74;99465.97;5012819;28;20189;-84
2022/04/18 09:13:43;;;;;;;3.80;3.10;;;;;;;15.86;32.52;99468.94;5013041;28;20203;-80
2022/04/18 09:16:16;;;;;;;4.13;3.10;;;;;;;15.90;32.35;99473.13;5014075;28;20254;-79
2022/04/18 09:18:43;;;;;;;5.30;3.10;;;;;;;15.77;32.20;99463.28;5014015;28;20530;-83
2022/04/18 09:21:10;;;;;;;3.45;3.15;;;;;;;15.88;32.51;99465.13;5014044;28;20187;-83
2022/04/18 09:23:37;;;;;;;3.35;2.90;;;;;;;16.05;32.32;99456.44;5012843;28;20730;-79
2022/04/18 09:26:05;;;;;;;3.25;2.95;;;;;;;16.25;32.11;99454.75;5013896;28;20568;-79
2022/04/18 09:28:34;;;;;;;3.75;3.03;;;;;;;16.37;32.08;99447.44;5013557;28;20263;-80
2022/04/18 09:31:02;;;;;;;5.13;3.55;;;;;;;16.16;32.17;99450.09;5013484;28;20206;-80
2022/04/18 09:33:31;;;;;;;3.95;3.30;;;;;;;16.04;32.16;99443.84;5009252;28;20187;-80
2022/04/18 09:36:09;;;;;;;3.90;3.50;;;;;;;16.19;32.47;99452.56;4993952;28;20226;-79
2022/04/18 09:38:38;;;;;;;4.35;3.45;;;;;;;15.91;32.19;99451.28;4993853;28;20275;-79
2022/04/18 09:41:05;;;;;;;3.63;3.33;;;;;;;16.16;32.49;99452.81;4993877;28;20191;-79
2022/04/18 09:43:39;;;;;;;5.40;2.92;;;;;;;16.19;32.28;99443.53;4993954;28;20645;-79
2022/04/18 09:46:07;;;;;;;3.38;2.60;;;;;;;16.12;32.53;99440.47;4993531;28;20194;-80
2022/04/18 09:48:34;;;;;;;4.85;3.50;;;;;;;16.00;32.50;99449.66;4993994;28;20198;-79
2022/04/18 09:51:08;;;;;;;5.13;3.30;;;;;;;16.21;32.09;99444.28;4993553;28;20218;-81
2022/04/18 09:53:37;;;;;;;7.38;3.40;;;;;;;16.33;31.68;99434.25;5001521;28;20613;-80
2022/04/18 09:56:04;;;;;;;4.32;3.45;;;;;;;16.45;31.78;99431.34;5012917;28;20238;-81
2022/04/18 09:58:33;;;;;;;3.92;3.28;;;;;;;16.50;31.91;99430.09;5012797;28;20202;-81
2022/04/18 10:01:04;;;;;;;3.55;2.95;;;;;;;16.58;32.08;99428.44;5012028;28;20590;-81
2022/04/18 10:03:32;;;;;;;4.22;3.15;;;;;;;16.68;31.88;99428.50;5012970;28;20191;-80
2022/04/18 10:06:00;;;;;;;3.67;3.15;;;;;;;16.83;31.53;99427.22;5013072;28;20632;-79
2022/04/18 10:08:27;;;;;;;3.97;2.97;;;;;;;16.97;31.42;99426.00;5004047;28;20952;-79
2022/04/18 10:10:57;;;;;;;3.25;2.88;;;;;;;16.99;30.61;99417.72;4997851;28;20962;-83
2022/04/18 10:13:24;;;;;;;5.97;3.08;;;;;;;17.21;30.63;99423.00;5012809;28;20206;-81
2022/04/18 10:15:51;;;;;;;4.45;3.05;;;;;;;17.13;30.79;99414.63;5011985;28;20206;-82
2022/04/18 10:18:18;;;;;;;6.15;3.10;;;;;;;16.91;31.07;99406.63;4993468;28;20548;-83
2022/04/18 10:20:58;;;;;;;3.88;3.47;;;;;;;16.95;31.15;99399.94;4992909;28;20199;-83
2022/04/18 10:23:46;;;;;;;5.15;4.15;;;;;;;16.98;30.87;99400.53;4993261;28;20590;-83
2022/04/18 10:26:51;;;;;;;5.78;3.00;;;;;;;17.10;30.49;99398.59;4992715;28;20192;-83
2022/04/18 10:29:21;;;;;;;6.13;3.10;;;;;;;17.27;30.43;99395.22;4993042;28;20195;-82
2022/04/18 10:31:52;;;;;;;3.88;2.75;;;;;;;17.41;29.95;99395.84;4993073;28;20638;-79
2022/04/18 10:34:22;;;;;;;3.38;2.60;;;;;;;17.43;29.88;99393.84;5010437;28;20294;-79
2022/04/18 10:36:52;;;;;;;8.32;3.33;;;;;;;17.39;30.36;99393.28;5012429;28;20210;-79
2022/04/18 10:39:19;;;;;;;4.75;2.60;;;;;;;17.24;29.40;99386.47;5012242;28;20194;-79
2022/04/18 10:41:49;;;;;;;2.78;2.55;;;;;;;16.88;30.06;99375.16;5024525;28;20548;-79
2022/04/18 10:44:17;;;;;;;4.95;2.95;;;;;;;17.29;29.94;99370.59;5012423;28;20558;-82
2022/04/18 10:47:03;;;;;;;4.60;2.63;;;;;;;17.53;29.81;99366.69;5012347;28;20625;-81
2022/04/18 10:49:31;;;;;;;3.25;2.65;;;;;;;17.61;29.25;99369.56;5012406;28;20242;-78
2022/04/18 10:52:08;;;;;;;2.60;2.10;;;;;;;17.52;29.30;99382.13;5012084;28;20206;-85
2022/04/18 10:54:36;;;;;;;3.33;3.03;;;;;;;17.68;29.36;99371.59;4996622;28;20187;-80
2022/04/18 10:57:08;;;;;;;3.88;3.58;;;;;;;17.72;29.67;99373.00;4992075;28;20231;-79
2022/04/18 10:59:36;;;;;;;3.00;2.55;;;;;;;17.80;29.13;99368.75;4992748;28;20184;-80
2022/04/18 11:02:05;;;;;;;5.47;3.10;;;;;;;17.81;29.07;99371.34;4992089;28;20299;-80
2022/04/18 11:04:33;;;;;;;2.90;2.60;;;;;;;17.69;29.13;99362.41;4992674;28;20619;-80
2022/04/18 11:07:02;;;;;;;16.10;6.32;;;;;;;17.75;35.51;99361.00;4992575;28;20207;-77
2022/04/18 11:09:31;;;;;;;5.50;3.58;;;;;;;17.89;35.20;99366.06;5006328;28;20191;-76
2022/04/18 11:12:06;;;;;;;10.43;5.50;;;;;;;18.13;37.63;99359.31;5007227;28;20691;-75
2022/04/18 11:14:52;;;;;;;3.67;3.00;;;;;;;18.12;29.53;99357.63;5001582;28;20194;-75
2022/04/18 11:17:30;;;;;;;2.90;2.38;;;;;;;18.10;30.04;99360.47;5012753;28;20211;-75
2022/04/18 11:19:57;;;;;;;4.60;2.60;;;;;;;18.00;31.65;99353.28;5013176;28;20562;-75
2022/04/18 11:22:25;;;;;;;4.60;3.20;;;;;;;18.06;31.28;99359.03;5012727;28;20213;-75
2022/04/18 11:25:03;;;;;;;4.05;2.50;;;;;;;18.11;30.75;99351.31;5013116;28;20594;-75
2022/04/18 11:27:38;;;;;;;4.13;2.75;;;;;;;18.27;31.11;99361.63;5012674;28;20222;-75
2022/04/18 11:30:08;;;;;;;3.70;2.53;;;;;;;18.16;29.58;99355.44;5012909;28;20201;-75
2022/04/18 11:32:37;;;;;;;3.30;2.58;;;;;;;18.33;32.42;99354.72;5012609;28;20190;-75
2022/04/18 11:35:09;;;;;;;5.82;2.50;;;;;;;18.43;33.05;99354.72;5013015;28;20278;-75
2022/04/18 11:37:39;;;;;;;3.75;2.10;;;;;;;18.49;31.29;99345.97;5007206;28;20675;-75
2022/04/18 11:40:08;;;;;;;5.35;2.65;;;;;;;18.46;29.94;99349.00;4993063;28;20355;-75
2022/04/18 11:42:34;;;;;;;3.50;2.30;;;;;;;18.53;30.19;99342.78;5001169;28;20642;-75
2022/04/18 11:45:06;;;;;;;5.53;2.90;;;;;;;18.59;31.17;99345.94;5012851;28;20214;-75
2022/04/18 11:47:41;;;;;;;4.88;2.42;;;;;;;18.67;31.71;99338.75;5012893;28;20204;-75
2022/04/18 11:50:09;;;;;;;2.97;2.00;;;;;;;18.71;29.36;99332.00;5013175;28;20555;-75
2022/04/18 11:52:37;;;;;;;2.55;2.20;;;;;;;18.61;28.99;99333.00;5012557;28;20295;-75
2022/04/18 11:55:06;;;;;;;3.17;2.20;;;;;;;18.36;30.52;99329.94;4992806;28;20193;-74
2022/04/18 11:57:34;;;;;;;2.60;2.35;;;;;;;18.30;30.62;99319.59;4993054;28;20557;-74
2022/04/18 12:00:04;;;;;;;2.92;2.40;;;;;;;18.46;31.22;99330.75;4992927;28;20189;-75
2022/04/18 12:08:02;;;;;;;2.35;2.08;;;;;;;18.65;28.93;99320.81;4992755;28;20188;-75